Time;durP1;ratioP1;P1;durP2;ratioP2;P2;SDS_P1;SDS_P2;PMS_P1;PMS_P2;Temp;Humidity;BMP_temperature;BMP_pressure;BME280_temperature;BME280_humidity;BME280_pressure;Samples;Min_cycle;Max_cycle;Signal;HPM_P1;HPM_P2
2022/04/17 00:01:13;;;;;;;14.10;12.90;;;;;;;2.35;76.40;103431.94;5015615;28;20437;-47
2022/04/17 00:03:41;;;;;;;14.20;13.00;;;;;;;2.28;76.14;103428.75;5015425;28;20469;-46
2022/04/17 00:06:12;;;;;;;15.80;14.37;;;;;;;2.22;76.73;103429.94;5015693;28;20445;-47
2022/04/17 00:08:40;;;;;;;16.20;14.40;;;;;;;2.18;77.04;103430.19;5015982;28;20441;-45
2022/04/17 00:11:07;;;;;;;16.13;14.57;;;;;;;2.18;77.39;103425.75;5015714;28;20433;-46
2022/04/17 00:13:36;;;;;;;17.63;15.97;;;;;;;2.17;77.29;103426.69;5015402;28;20901;-50
2022/04/17 00:16:04;;;;;;;17.30;15.90;;;;;;;2.19;78.25;103418.69;5015436;28;20977;-46
2022/04/17 00:18:32;;;;;;;17.97;16.43;;;;;;;2.19;78.27;103421.34;5015587;28;20443;-47
2022/04/17 00:20:59;;;;;;;16.13;14.93;;;;;;;2.18;77.95;103409.94;5015260;28;20436;-45
2022/04/17 00:23:29;;;;;;;15.33;14.13;;;;;;;2.17;78.59;103405.63;5015051;28;20484;-48
2022/04/17 00:25:56;;;;;;;15.37;14.27;;;;;;;2.15;78.22;103411.91;5011228;28;20466;-45
2022/04/17 00:28:24;;;;;;;16.10;14.70;;;;;;;2.12;78.09;103407.63;5004344;28;20430;-46
2022/04/17 00:30:52;;;;;;;14.90;13.70;;;;;;;2.10;78.26;103404.22;5015233;28;20428;-44
2022/04/17 00:33:20;;;;;;;17.13;15.63;;;;;;;2.05;78.41;103400.13;5014774;28;20831;-45
2022/04/17 00:35:47;;;;;;;17.73;15.47;;;;;;;2.04;79.06;103396.63;5015380;28;20827;-46
2022/04/17 00:38:15;;;;;;;16.70;15.30;;;;;;;2.08;79.19;103392.06;5015366;28;20444;-46
2022/04/17 00:40:44;;;;;;;17.60;16.20;;;;;;;2.09;79.21;103391.16;5014936;28;20439;-49
2022/04/17 00:43:25;;;;;;;18.40;16.67;;;;;;;2.11;78.97;103381.38;5014645;28;20467;-46
2022/04/17 00:45:53;;;;;;;15.70;14.50;;;;;;;2.11;79.06;103381.38;5009678;28;20818;-46
2022/04/17 00:48:20;;;;;;;17.47;15.87;;;;;;;2.12;79.33;103383.09;5007002;28;20810;-45
2022/04/17 00:50:50;;;;;;;16.77;15.13;;;;;;;2.09;78.98;103381.44;5014941;28;20429;-46
2022/04/17 00:53:19;;;;;;;17.43;15.63;;;;;;;2.09;79.27;103388.53;5014563;28;20825;-45
2022/04/17 00:55:50;;;;;;;18.60;16.50;;;;;;;2.07;79.34;103393.00;5014913;28;20481;-47
2022/04/17 00:58:18;;;;;;;17.17;15.70;;;;;;;2.04;79.23;103387.88;5014741;28;20464;-47
2022/04/17 01:00:46;;;;;;;18.00;16.20;;;;;;;2.03;79.59;103388.81;5014813;28;20429;-46
2022/04/17 01:03:17;;;;;;;16.47;14.87;;;;;;;1.98;79.18;103388.19;5014087;28;20475;-47
2022/04/17 01:05:46;;;;;;;17.87;16.10;;;;;;;1.95;79.12;103388.34;5014126;28;20431;-45
2022/04/17 01:08:14;;;;;;;15.20;14.00;;;;;;;1.92;79.44;103391.13;5014281;28;20568;-45
2022/04/17 01:10:42;;;;;;;17.43;15.83;;;;;;;1.89;79.55;103392.13;5013794;28;20425;-48
2022/04/17 01:13:12;;;;;;;15.93;14.63;;;;;;;1.86;79.22;103396.69;5014081;28;20835;-46
2022/04/17 01:15:40;;;;;;;16.60;15.40;;;;;;;1.81;79.25;103383.78;5014362;28;20961;-49
2022/04/17 01:18:08;;;;;;;17.73;16.20;;;;;;;1.76;79.19;103388.41;5014421;28;20441;-48
2022/04/17 01:20:38;;;;;;;18.20;16.27;;;;;;;1.74;79.83;103389.41;5014278;28;20441;-45
2022/04/17 01:28:37;;;;;;;20.37;18.60;;;;;;;1.57;80.10;103385.81;5014386;28;20810;-45
2022/04/17 01:31:04;;;;;;;20.07;18.33;;;;;;;1.54;80.60;103393.88;5014033;28;20445;-46
2022/04/17 01:33:32;;;;;;;17.13;15.70;;;;;;;1.49;80.60;103387.94;5013670;28;20476;-45
2022/04/17 01:36:00;;;;;;;17.83;16.23;;;;;;;1.45;80.34;103380.31;5013929;28;20491;-50
2022/04/17 01:38:29;;;;;;;16.73;15.23;;;;;;;1.41;80.33;103382.22;5014143;28;20443;-45
2022/04/17 01:40:56;;;;;;;19.90;17.87;;;;;;;1.37;80.62;103378.06;5014010;28;20433;-45
2022/04/17 01:43:24;;;;;;;18.20;16.60;;;;;;;1.33;80.60;103379.13;5013469;28;20476;-46
2022/04/17 01:45:51;;;;;;;19.47;17.77;;;;;;;1.32;81.32;103373.91;5008745;28;20463;-49
2022/04/17 01:48:19;;;;;;;21.00;18.90;;;;;;;1.30;81.50;103373.16;5005612;28;20441;-47
2022/04/17 01:50:47;;;;;;;19.63;17.80;;;;;;;1.27;81.29;103376.78;5013904;28;20433;-47
2022/04/17 01:53:15;;;;;;;19.70;17.73;;;;;;;1.22;81.57;103373.53;5013429;28;20848;-46
2022/04/17 01:55:43;;;;;;;17.50;15.90;;;;;;;1.21;81.12;103384.09;5013752;28;20812;-45
2022/04/17 01:58:11;;;;;;;19.17;17.40;;;;;;;1.18;81.87;103371.94;5013657;28;20939;-46
2022/04/17 02:00:39;;;;;;;18.50;16.80;;;;;;;1.19;81.81;103373.66;5013395;28;20433;-44
2022/04/17 02:03:06;;;;;;;16.30;15.00;;;;;;;1.18;82.10;103364.06;5013133;28;20468;-46
2022/04/17 02:05:34;;;;;;;17.83;16.23;;;;;;;1.18;82.32;103364.06;5013812;28;20433;-44
2022/04/17 02:08:01;;;;;;;19.93;18.03;;;;;;;1.16;81.94;103365.06;5013716;28;20436;-45
2022/04/17 02:10:29;;;;;;;19.17;17.23;;;;;;;1.13;82.64;103366.88;5013459;28;20433;-47
2022/04/17 02:12:59;;;;;;;18.70;16.90;;;;;;;1.10;82.44;103366.22;5013011;28;20479;-44
2022/04/17 02:15:27;;;;;;;17.57;15.97;;;;;;;1.05;82.10;103368.19;5013390;28;20440;-48
2022/04/17 02:17:55;;;;;;;17.27;15.63;;;;;;;1.01;82.42;103356.13;5013561;28;20499;-45
2022/04/17 02:20:22;;;;;;;17.57;16.03;;;;;;;0.99;82.60;103357.94;5013288;28;20433;-46
2022/04/17 02:22:50;;;;;;;18.80;17.03;;;;;;;0.96;82.55;103352.84;5011954;28;20465;-45
2022/04/17 02:25:17;;;;;;;18.27;16.67;;;;;;;0.91;83.30;103350.44;5013223;28;20938;-46
2022/04/17 02:27:45;;;;;;;16.03;14.73;;;;;;;0.89;83.32;103349.66;5012809;28;20480;-47
2022/04/17 02:32:46;;;;;;;17.83;16.20;;;;;;;0.86;83.29;103344.56;4938012;28;20476;-47
2022/04/17 02:35:14;;;;;;;17.97;16.50;;;;;;;0.84;84.00;103353.41;4931279;29;20429;-45
2022/04/17 02:37:42;;;;;;;19.77;17.97;;;;;;;0.80;83.59;103350.09;4934923;29;20480;-47
2022/04/17 02:40:10;;;;;;;17.60;16.20;;;;;;;0.80;83.97;103347.47;4934728;29;20440;-47
2022/04/17 02:42:38;;;;;;;18.70;16.97;;;;;;;0.81;84.68;103359.66;4934092;28;20508;-45
2022/04/17 02:45:06;;;;;;;18.67;16.97;;;;;;;0.85;84.69;103355.97;4931933;29;20433;-43
2022/04/17 02:47:47;;;;;;;17.47;16.20;;;;;;;0.88;84.30;103347.09;4915956;29;20434;-46
2022/04/17 02:50:17;;;;;;;18.20;16.50;;;;;;;0.89;84.66;103354.91;4916145;29;20433;-50
2022/04/17 02:52:46;;;;;;;16.90;15.47;;;;;;;0.86;84.15;103352.44;4915984;29;20472;-45
2022/04/17 02:55:14;;;;;;;16.43;15.23;;;;;;;0.83;84.52;103349.09;4916300;29;20441;-44
2022/04/17 02:57:41;;;;;;;17.30;15.90;;;;;;;0.82;85.07;103355.25;4916387;29;20481;-43
2022/04/17 03:00:10;;;;;;;16.67;15.13;;;;;;;0.80;85.14;103349.22;4916289;29;20444;-45
2022/04/17 03:05:40;;;;;;;16.20;14.87;;;;;;;0.72;84.72;103340.84;4916132;29;20434;-44
2022/04/17 03:08:09;;;;;;;17.43;15.73;;;;;;;0.69;85.22;103341.00;4916320;29;20441;-44
2022/04/17 03:10:38;;;;;;;16.33;14.83;;;;;;;0.67;85.37;103341.06;4915827;29;20458;-46
2022/04/17 03:13:07;;;;;;;16.67;15.07;;;;;;;0.64;85.57;103333.31;4915683;29;20473;-42
2022/04/17 03:15:37;;;;;;;17.50;15.80;;;;;;;0.64;85.85;103335.09;4916082;29;20520;-47
2022/04/17 03:18:05;;;;;;;19.40;17.60;;;;;;;0.67;86.35;103338.44;4915808;29;20477;-45
2022/04/17 03:20:34;;;;;;;18.57;16.97;;;;;;;0.71;86.45;103336.50;4915882;29;20795;-45
2022/04/17 03:23:02;;;;;;;16.83;15.33;;;;;;;0.75;86.75;103343.31;4915481;29;20999;-43
2022/04/17 03:25:30;;;;;;;17.77;15.87;;;;;;;0.80;87.28;103331.69;4915878;29;20445;-46
2022/04/17 03:28:00;;;;;;;16.57;15.17;;;;;;;0.85;87.22;103337.59;4915989;29;20453;-44
2022/04/17 03:30:27;;;;;;;17.43;15.70;;;;;;;0.85;86.91;103328.84;4915323;29;20438;-45
2022/04/17 03:32:56;;;;;;;16.47;15.07;;;;;;;0.88;87.11;103337.44;4915316;29;20465;-45
2022/04/17 03:35:24;;;;;;;17.10;15.60;;;;;;;0.89;87.18;103328.66;4916021;29;20438;-42
2022/04/17 03:37:54;;;;;;;16.57;14.97;;;;;;;0.91;87.62;103333.81;4915809;29;20887;-46
2022/04/17 03:40:22;;;;;;;16.50;14.93;;;;;;;0.91;87.15;103333.81;4915534;29;20464;-45
2022/04/17 03:42:50;;;;;;;18.40;16.60;;;;;;;0.94;87.87;103333.69;4915257;29;20462;-42
2022/04/17 03:45:18;;;;;;;18.80;17.30;;;;;;;1.02;88.35;103339.41;4915839;29;20440;-47
2022/04/17 03:47:46;;;;;;;19.50;17.80;;;;;;;1.08;88.04;103339.13;4908144;29;20489;-43
2022/04/17 03:50:13;;;;;;;17.37;16.07;;;;;;;1.11;88.54;103331.97;4915640;29;20437;-48
2022/04/17 03:52:42;;;;;;;19.63;17.60;;;;;;;1.11;87.94;103342.47;4915328;29;20465;-44
2022/04/17 03:55:12;;;;;;;17.77;16.47;;;;;;;1.14;88.31;103346.72;4915589;29;20442;-48
2022/04/17 03:57:40;;;;;;;17.73;16.03;;;;;;;1.13;88.63;103340.59;4915442;29;20477;-47
2022/04/17 04:00:10;;;;;;;17.47;16.17;;;;;;;1.15;88.83;103337.06;4915577;29;20443;-47
2022/04/17 04:02:37;;;;;;;16.10;14.80;;;;;;;1.07;88.15;103340.06;4915042;29;20481;-42
2022/04/17 04:05:07;;;;;;;16.00;14.80;;;;;;;0.99;88.57;103332.53;4914909;29;20524;-43
2022/04/17 04:07:35;;;;;;;16.00;14.80;;;;;;;0.91;88.17;103332.06;4915081;29;20815;-42
2022/04/17 04:10:03;;;;;;;16.27;14.70;;;;;;;0.84;88.44;103337.63;4915355;29;20441;-43
2022/04/17 04:12:33;;;;;;;15.33;14.10;;;;;;;0.80;88.04;103334.31;4928743;28;20464;-45
2022/04/17 04:15:00;;;;;;;15.53;14.43;;;;;;;0.78;88.19;103341.41;4930924;29;20436;-45
2022/04/17 04:17:28;;;;;;;16.53;15.03;;;;;;;0.80;88.88;103328.22;4929375;29;20722;-45
2022/04/17 04:19:56;;;;;;;15.23;14.03;;;;;;;0.75;88.61;103328.41;4924936;29;20852;-42
2022/04/17 04:22:23;;;;;;;15.50;14.37;;;;;;;0.77;88.55;103346.75;4920690;28;20479;-43
2022/04/17 04:24:51;;;;;;;16.30;15.10;;;;;;;0.78;89.17;103337.91;4908197;29;20520;-43
2022/04/17 04:30:06;;;;;;;16.40;14.70;;;;;;;0.80;89.14;103342.22;4922382;29;20432;-43
2022/04/17 04:32:33;;;;;;;14.33;13.23;;;;;;;0.86;89.39;103339.31;4920265;28;20831;-45
2022/04/17 04:35:05;;;;;;;16.70;15.10;;;;;;;0.94;89.73;103346.81;4923349;29;20532;-43
2022/04/17 04:37:33;;;;;;;16.60;15.13;;;;;;;1.10;89.84;103340.78;4917541;29;20489;-48
2022/04/17 04:40:01;;;;;;;15.60;14.30;;;;;;;1.38;90.77;103339.44;4918778;29;20445;-48
2022/04/17 04:42:28;;;;;;;16.10;14.57;;;;;;;1.70;91.38;103341.38;4916170;29;20480;-44
2022/04/17 04:47:45;;;;;;;15.20;14.00;;;;;;;2.62;92.01;103340.97;4895113;29;20459;-44
2022/04/17 04:50:11;;;;;;;13.73;12.73;;;;;;;3.34;92.67;103334.25;4924200;29;20468;-46
2022/04/17 04:52:39;;;;;;;14.80;13.40;;;;;;;4.19;92.18;103331.03;4927720;29;20479;-45
2022/04/17 04:55:07;;;;;;;13.90;12.70;;;;;;;4.91;90.84;103331.78;4914818;29;20939;-44
2022/04/17 04:57:36;;;;;;;14.97;13.67;;;;;;;5.65;89.53;103335.81;4929262;29;20437;-44
2022/04/17 05:00:05;;;;;;;13.13;12.10;;;;;;;6.12;84.51;103329.03;4932943;29;20445;-43
2022/04/17 05:02:33;;;;;;;12.20;11.07;;;;;;;6.44;78.06;103318.88;4928106;28;20871;-45
2022/04/17 05:05:02;;;;;;;12.00;11.00;;;;;;;7.04;75.72;103323.44;4925960;29;20441;-47
2022/04/17 05:07:29;;;;;;;12.97;11.87;;;;;;;7.74;75.33;103333.19;4929632;29;20860;-46
2022/04/17 05:09:57;;;;;;;14.10;12.90;;;;;;;8.53;75.16;103326.25;4934496;29;20804;-44
2022/04/17 05:12:24;;;;;;;12.23;11.30;;;;;;;9.19;68.32;103330.69;4917583;29;20550;-45
2022/04/17 05:14:52;;;;;;;13.20;12.10;;;;;;;9.97;70.23;103336.56;4927260;29;20447;-47
2022/04/17 05:17:19;;;;;;;12.80;11.90;;;;;;;10.61;67.60;103323.88;4931541;29;20460;-45
2022/04/17 05:19:49;;;;;;;12.70;11.60;;;;;;;11.18;63.76;103323.19;4932895;29;20487;-40
2022/04/17 05:22:20;;;;;;;12.47;11.57;;;;;;;11.80;60.73;103322.84;4930615;29;20475;-45
2022/04/17 05:24:48;;;;;;;12.47;11.57;;;;;;;12.42;58.36;103316.09;4929459;29;20939;-41
2022/04/17 05:27:15;;;;;;;13.70;12.60;;;;;;;13.07;55.64;103317.75;4918303;29;20450;-40
2022/04/17 05:29:43;;;;;;;15.97;14.27;;;;;;;13.67;53.70;103316.22;4917224;29;20445;-44
2022/04/17 05:32:11;;;;;;;16.40;14.90;;;;;;;14.25;51.21;103309.25;4933087;28;20471;-46
2022/04/17 05:34:38;;;;;;;16.63;15.00;;;;;;;14.52;49.43;103310.09;4928377;29;20804;-47
2022/04/17 05:37:07;;;;;;;15.27;13.97;;;;;;;14.64;49.27;103311.50;4933528;29;20440;-46
2022/04/17 05:39:36;;;;;;;12.97;11.87;;;;;;;15.02;48.01;103307.47;4920893;29;20558;-47
2022/04/17 05:42:05;;;;;;;14.30;13.10;;;;;;;15.29;48.85;103299.94;4925813;28;20484;-44
2022/04/17 05:44:32;;;;;;;13.40;12.30;;;;;;;15.55;45.75;103305.22;4921718;29;20450;-46
2022/04/17 05:47:00;;;;;;;14.13;12.73;;;;;;;15.20;46.00;103305.50;4919761;29;20460;-44
2022/04/17 05:49:28;;;;;;;14.33;12.93;;;;;;;15.24;46.16;103302.28;4922041;29;20777;-41
2022/04/17 05:51:57;;;;;;;12.83;11.70;;;;;;;15.21;46.92;103296.41;4916746;29;20469;-47
2022/04/17 05:54:26;;;;;;;15.30;14.00;;;;;;;15.85;45.86;103301.88;4931990;29;20429;-43
2022/04/17 05:56:55;;;;;;;16.23;14.73;;;;;;;16.31;44.66;103305.66;4929103;29;20445;-48
2022/04/17 05:59:23;;;;;;;14.90;13.80;;;;;;;16.65;44.66;103301.88;4930228;29;20486;-47
2022/04/17 06:01:50;;;;;;;15.80;14.50;;;;;;;17.01;43.74;103303.88;4926313;29;20469;-43
2022/04/17 06:04:18;;;;;;;18.80;17.00;;;;;;;17.28;42.85;103302.53;4931546;29;20448;-48
2022/04/17 06:06:46;;;;;;;22.97;20.73;;;;;;;17.51;41.21;103297.13;4925429;29;20815;-43
2022/04/17 06:09:13;;;;;;;24.20;21.90;;;;;;;17.54;40.96;103299.47;4927521;29;20938;-46
2022/04/17 06:11:42;;;;;;;19.00;17.40;;;;;;;17.46;39.75;103294.16;4919735;29;20971;-45
2022/04/17 06:14:10;;;;;;;18.50;16.80;;;;;;;17.57;38.52;103302.69;4918518;29;20437;-49
2022/04/17 06:16:39;;;;;;;19.73;18.03;;;;;;;17.03;38.59;103293.75;4918663;29;20442;-44
2022/04/17 06:19:09;;;;;;;19.67;17.83;;;;;;;16.36;39.77;103289.00;4927281;29;20476;-43
2022/04/17 06:21:40;;;;;;;18.70;17.10;;;;;;;15.90;41.29;103288.75;4908029;28;20499;-46
2022/04/17 06:24:07;;;;;;;17.90;16.40;;;;;;;15.59;41.18;103295.81;4927244;29;20536;-47
2022/04/17 06:26:35;;;;;;;20.07;18.20;;;;;;;14.81;41.11;103284.53;4917357;29;20524;-42
2022/04/17 06:29:07;;;;;;;18.33;16.57;;;;;;;14.32;42.14;103285.31;4917458;29;20444;-45
2022/04/17 06:31:43;;;;;;;18.17;16.57;;;;;;;14.02;43.01;103288.47;4920771;28;20473;-45
2022/04/17 06:34:11;;;;;;;20.27;18.27;;;;;;;14.47;43.78;103286.44;4925221;29;20444;-44
2022/04/17 06:36:38;;;;;;;19.53;17.83;;;;;;;14.98;43.73;103281.91;4930637;29;20812;-48
2022/04/17 06:39:06;;;;;;;19.30;17.30;;;;;;;15.96;43.77;103280.00;4916041;29;20481;-45
2022/04/17 06:41:34;;;;;;;19.80;18.10;;;;;;;16.74;42.83;103272.03;4923981;29;20826;-48
2022/04/17 06:44:01;;;;;;;20.97;18.97;;;;;;;17.43;42.07;103272.94;4931298;29;20447;-45
2022/04/17 06:46:29;;;;;;;21.60;19.40;;;;;;;17.97;41.04;103268.25;4924469;29;20448;-45
2022/04/17 06:48:58;;;;;;;19.77;17.77;;;;;;;18.56;38.28;103269.13;4919923;29;20994;-44
2022/04/17 06:51:26;;;;;;;20.80;19.00;;;;;;;18.91;39.01;103264.75;4926245;29;20990;-45
2022/04/17 06:53:53;;;;;;;19.37;17.57;;;;;;;19.26;37.11;103261.22;4930447;29;20436;-45
2022/04/17 06:56:21;;;;;;;18.27;16.67;;;;;;;19.67;36.24;103266.81;4931502;29;20436;-47
2022/04/17 06:58:49;;;;;;;19.00;17.30;;;;;;;19.90;35.91;103259.28;4928899;29;20487;-49
2022/04/17 07:01:17;;;;;;;25.07;22.80;;;;;;;19.43;35.11;103261.81;4924608;29;20827;-48
2022/04/17 07:03:45;;;;;;;22.97;20.97;;;;;;;18.85;33.54;103252.84;4950451;28;20462;-48
2022/04/17 07:06:14;;;;;;;23.73;21.27;;;;;;;18.69;32.23;103244.97;4966137;28;20434;-42
2022/04/17 07:08:42;;;;;;;21.70;19.50;;;;;;;18.46;31.23;103246.91;4969726;28;20442;-45
2022/04/17 07:11:09;;;;;;;21.37;19.57;;;;;;;18.16;34.97;103244.25;4969620;28;20987;-45
2022/04/17 07:13:39;;;;;;;20.03;18.33;;;;;;;18.19;34.28;103243.88;4968646;28;20473;-48
2022/04/17 07:16:07;;;;;;;20.80;18.87;;;;;;;17.62;32.89;103237.41;4956791;28;20455;-50
2022/04/17 07:18:35;;;;;;;19.20;17.40;;;;;;;17.54;33.90;103246.41;4961228;28;20458;-44
2022/04/17 07:21:03;;;;;;;21.07;19.20;;;;;;;17.12;35.77;103246.00;4956168;28;20917;-49
2022/04/17 07:23:32;;;;;;;18.93;17.43;;;;;;;17.10;36.00;103246.22;4963116;28;20841;-44
2022/04/17 07:26:00;;;;;;;18.27;16.70;;;;;;;16.99;35.51;103243.91;4969007;28;20456;-44
2022/04/17 07:28:27;;;;;;;21.90;19.80;;;;;;;16.74;37.49;103241.53;4957356;28;20818;-44
2022/04/17 07:30:55;;;;;;;17.83;16.43;;;;;;;16.56;37.51;103234.56;4956014;28;20463;-46
2022/04/17 07:33:23;;;;;;;17.77;16.47;;;;;;;16.06;37.64;103234.06;4954991;28;20466;-43
2022/04/17 07:35:50;;;;;;;19.07;17.37;;;;;;;15.41;38.60;103226.03;4969837;28;20439;-47
2022/04/17 07:38:18;;;;;;;19.70;18.07;;;;;;;15.17;39.36;103230.56;4971455;28;20435;-48
2022/04/17 07:40:47;;;;;;;15.00;13.80;;;;;;;14.93;39.77;103228.69;4957561;28;20495;-47
2022/04/17 07:43:15;;;;;;;10.87;10.00;;;;;;;15.02;38.10;103233.06;4960229;28;20462;-41
2022/04/17 07:45:42;;;;;;;11.53;10.50;;;;;;;14.99;38.29;103227.19;4962660;28;20435;-45
2022/04/17 07:48:10;;;;;;;14.87;13.43;;;;;;;14.57;40.53;103230.78;4966675;28;20447;-48
2022/04/17 07:50:38;;;;;;;12.13;10.97;;;;;;;14.39;39.51;103228.16;4958034;28;20447;-46
2022/04/17 07:53:05;;;;;;;12.67;11.70;;;;;;;14.20;40.13;103227.53;4957204;28;20468;-42
2022/04/17 07:55:34;;;;;;;16.47;14.87;;;;;;;14.10;41.87;103222.28;4959466;28;20436;-47
2022/04/17 07:58:07;;;;;;;9.90;9.20;;;;;;;14.25;40.15;103220.69;4955615;28;20465;-43
2022/04/17 08:00:45;;;;;;;11.90;10.93;;;;;;;14.21;40.79;103216.66;4955576;28;20503;-44
2022/04/17 08:03:35;;;;;;;13.10;12.07;;;;;;;14.32;41.15;103216.41;4953878;28;20463;-46
2022/04/17 08:06:05;;;;;;;11.63;8.80;;;;;;;14.43;39.37;103209.88;4959597;28;20428;-44
2022/04/17 08:08:33;;;;;;;9.93;9.17;;;;;;;14.64;38.79;103217.50;4957634;28;20436;-44
2022/04/17 08:11:00;;;;;;;10.60;9.70;;;;;;;14.89;38.71;103213.88;4957494;28;20451;-48
2022/04/17 08:13:29;;;;;;;9.33;8.70;;;;;;;15.14;38.13;103204.03;4948005;28;20476;-45
2022/04/17 08:15:57;;;;;;;9.00;8.40;;;;;;;15.32;38.47;103210.06;4960482;28;20438;-41
2022/04/17 08:18:25;;;;;;;9.50;8.80;;;;;;;15.45;37.69;103203.16;4962278;28;20443;-43
2022/04/17 08:20:52;;;;;;;9.60;8.90;;;;;;;15.65;37.45;103210.94;4971883;28;20482;-44
2022/04/17 08:23:20;;;;;;;9.00;8.30;;;;;;;15.76;35.80;103197.97;4965028;28;20463;-44
2022/04/17 08:25:47;;;;;;;9.80;9.00;;;;;;;15.77;36.10;103204.19;4966149;28;20932;-45
2022/04/17 08:28:15;;;;;;;9.90;9.07;;;;;;;15.79;35.89;103202.16;4969364;28;20458;-43
2022/04/17 08:30:44;;;;;;;9.63;8.90;;;;;;;15.82;34.80;103199.97;4963868;28;20479;-47
2022/04/17 08:33:12;;;;;;;9.53;8.83;;;;;;;15.67;35.47;103201.69;4963008;28;20829;-45
2022/04/17 08:35:39;;;;;;;9.03;8.37;;;;;;;15.66;35.78;103199.97;4961281;28;20431;-44
2022/04/17 08:38:07;;;;;;;9.30;8.60;;;;;;;15.64;35.33;103202.00;4969706;28;20450;-46
2022/04/17 08:40:35;;;;;;;8.97;8.37;;;;;;;15.54;34.92;103200.50;4975852;28;20474;-45
2022/04/17 08:43:07;;;;;;;8.50;7.90;;;;;;;15.55;35.25;103205.72;4973634;28;20992;-46
2022/04/17 08:45:34;;;;;;;8.40;7.60;;;;;;;15.49;35.21;103198.34;4997604;23;20436;-44
2022/04/17 08:48:05;;;;;;;8.03;7.50;;;;;;;15.55;34.39;103203.03;5013775;28;20433;-44
2022/04/17 08:50:33;;;;;;;8.20;7.70;;;;;;;15.59;33.89;103200.84;5014649;28;20429;-47
2022/04/17 08:53:03;;;;;;;9.13;8.43;;;;;;;15.65;33.80;103192.91;5001388;28;20477;-43
2022/04/17 08:55:30;;;;;;;7.40;6.90;;;;;;;15.67;34.66;103190.06;4975778;28;20438;-43
2022/04/17 08:57:58;;;;;;;7.77;7.27;;;;;;;15.67;34.38;103185.53;4975609;28;21001;-44
2022/04/17 09:00:26;;;;;;;7.13;6.57;;;;;;;15.58;33.93;103183.88;4975204;28;20474;-45
2022/04/17 09:02:53;;;;;;;7.20;6.70;;;;;;;15.69;32.31;103188.03;4975468;28;20471;-48
2022/04/17 09:05:22;;;;;;;6.60;6.20;;;;;;;15.73;33.07;103182.16;4975276;28;20474;-45
2022/04/17 09:07:51;;;;;;;7.40;7.00;;;;;;;15.83;32.87;103179.28;4975305;28;20445;-44
2022/04/17 09:10:27;;;;;;;6.47;6.07;;;;;;;15.83;31.57;103165.84;4975388;28;20947;-44
2022/04/17 09:12:56;;;;;;;6.93;6.43;;;;;;;15.85;32.85;103178.09;4975264;28;20478;-44
2022/04/17 09:15:25;;;;;;;7.10;6.60;;;;;;;15.93;33.34;103171.84;4975098;28;20439;-45
2022/04/17 09:17:53;;;;;;;6.77;6.37;;;;;;;16.00;32.88;103167.44;4975487;28;20461;-45
2022/04/17 09:20:24;;;;;;;6.90;6.40;;;;;;;16.18;33.13;103161.84;4975037;28;20478;-46
2022/04/17 09:22:54;;;;;;;7.47;6.80;;;;;;;16.27;32.80;103160.78;4975030;28;20534;-47
2022/04/17 09:25:24;;;;;;;6.50;6.10;;;;;;;16.34;32.61;103153.66;4975400;28;20438;-44
2022/04/17 09:27:56;;;;;;;6.80;6.30;;;;;;;16.42;32.38;103148.25;4975365;28;20442;-45
2022/04/17 09:30:25;;;;;;;7.77;7.07;;;;;;;16.37;31.63;103146.06;4973946;28;20442;-45
2022/04/17 09:32:53;;;;;;;7.07;6.47;;;;;;;16.13;31.85;103150.75;4974716;28;20470;-46
2022/04/17 09:35:24;;;;;;;6.30;5.90;;;;;;;16.22;33.14;103155.09;4975443;28;20438;-44
2022/04/17 09:37:57;;;;;;;6.53;6.13;;;;;;;16.29;31.47;103145.28;4975170;28;20443;-46
2022/04/17 09:40:26;;;;;;;6.67;6.17;;;;;;;16.48;31.92;103143.00;4975018;28;20557;-45
2022/04/17 09:43:08;;;;;;;7.33;6.73;;;;;;;16.60;31.83;103138.06;4974738;28;20493;-43
2022/04/17 09:45:56;;;;;;;5.90;5.50;;;;;;;15.99;30.23;103130.78;4980962;28;20426;-46
2022/04/17 09:48:24;;;;;;;6.90;6.40;;;;;;;15.86;32.62;103134.00;4984871;28;20994;-45
2022/04/17 09:50:53;;;;;;;5.87;5.47;;;;;;;16.21;31.54;103121.09;4974812;28;20442;-43
2022/04/17 09:53:32;;;;;;;7.13;6.73;;;;;;;16.36;31.46;103124.72;4974335;28;20470;-44
2022/04/17 09:56:07;;;;;;;6.93;6.40;;;;;;;16.41;30.22;103108.84;4973210;28;20465;-44
2022/04/17 09:58:37;;;;;;;6.77;6.27;;;;;;;16.53;30.74;103104.75;4974717;28;20445;-44
2022/04/17 10:01:15;;;;;;;6.60;6.00;;;;;;;16.54;29.88;103109.16;4974328;28;20486;-45
2022/04/17 10:03:44;;;;;;;5.90;5.60;;;;;;;16.28;29.93;103108.59;4974191;28;20513;-44
2022/04/17 10:06:13;;;;;;;6.03;5.60;;;;;;;15.90;28.72;103110.28;4974503;28;20546;-45
2022/04/17 10:08:44;;;;;;;5.87;5.47;;;;;;;15.99;30.70;103096.63;4974754;28;20435;-44
2022/04/17 10:11:14;;;;;;;5.87;5.47;;;;;;;16.11;30.35;103088.16;4974406;28;20427;-44
2022/04/17 10:13:41;;;;;;;5.63;5.23;;;;;;;16.17;30.22;103095.53;4973770;28;20459;-45
2022/04/17 10:16:10;;;;;;;5.60;5.30;;;;;;;16.13;30.16;103081.59;4974369;28;20455;-43
2022/04/17 10:18:42;;;;;;;5.60;5.20;;;;;;;16.23;29.55;103081.38;4974196;28;20446;-45
2022/04/17 10:21:11;;;;;;;6.97;6.47;;;;;;;16.09;29.05;103077.59;4974406;28;20483;-45
2022/04/17 10:23:43;;;;;;;5.90;5.60;;;;;;;16.27;29.63;103080.84;4973870;28;20840;-44
2022/04/17 10:26:13;;;;;;;5.87;5.47;;;;;;;16.25;29.21;103074.78;4974222;28;20461;-44
2022/04/17 10:28:45;;;;;;;5.90;5.33;;;;;;;15.97;28.66;103063.69;4973801;28;20442;-44
2022/04/17 10:31:19;;;;;;;5.87;5.40;;;;;;;16.30;30.54;103066.19;4974517;28;20419;-43
2022/04/17 10:34:13;;;;;;;5.30;5.00;;;;;;;16.47;28.94;103068.59;4973713;28;20880;-47
2022/04/17 10:36:57;;;;;;;5.50;5.20;;;;;;;16.54;29.21;103071.44;4974038;28;20447;-43
2022/04/17 10:39:33;;;;;;;5.80;5.40;;;;;;;16.72;28.82;103066.59;4973998;28;20446;-44
2022/04/17 10:42:09;;;;;;;5.77;5.47;;;;;;;16.91;29.29;103054.44;4972225;28;20479;-47
2022/04/17 10:44:41;;;;;;;6.33;5.83;;;;;;;16.67;30.66;103066.28;4973873;28;20831;-45
2022/04/17 10:47:20;;;;;;;6.77;6.27;;;;;;;16.35;31.88;103061.09;4988211;28;20573;-47
2022/04/17 10:49:56;;;;;;;7.23;6.70;;;;;;;16.02;33.03;103061.28;4993206;28;20839;-45
2022/04/17 10:52:29;;;;;;;8.00;7.33;;;;;;;15.88;33.74;103055.81;4992766;28;20492;-45
2022/04/17 10:55:09;;;;;;;6.90;6.30;;;;;;;15.83;33.04;103048.25;4993558;28;20429;-44
2022/04/17 10:57:44;;;;;;;6.60;6.10;;;;;;;15.80;32.01;103054.00;4992821;28;20468;-45
2022/04/17 11:00:31;;;;;;;6.90;6.30;;;;;;;15.56;33.37;103048.69;4992839;28;20440;-44
2022/04/17 11:03:23;;;;;;;5.67;5.33;;;;;;;15.08;33.98;103046.97;4992638;28;20473;-43
2022/04/17 11:06:09;;;;;;;6.77;6.30;;;;;;;15.03;35.21;103037.72;4993049;28;20640;-46
2022/04/17 11:08:47;;;;;;;7.17;6.67;;;;;;;15.10;36.48;103038.72;4992754;28;20492;-47
2022/04/17 11:11:16;;;;;;;6.40;5.87;;;;;;;15.15;36.16;103047.94;4992393;28;20513;-46
2022/04/17 11:14:05;;;;;;;6.00;5.60;;;;;;;15.11;34.73;103032.34;4992297;28;20481;-45
2022/04/17 11:16:39;;;;;;;6.93;6.47;;;;;;;15.15;34.47;103036.34;4992824;28;20450;-46
2022/04/17 11:19:12;;;;;;;5.77;5.37;;;;;;;14.86;35.28;103029.69;4992726;28;20434;-47
2022/04/17 11:21:44;;;;;;;6.00;5.60;;;;;;;14.49;37.75;103032.03;4992132;28;20488;-46
2022/04/17 11:24:12;;;;;;;5.40;5.00;;;;;;;14.16;37.75;103025.75;4992740;28;20924;-47
2022/04/17 11:27:09;;;;;;;5.43;5.10;;;;;;;14.49;35.29;103023.97;4992522;28;20442;-47
2022/04/17 11:29:39;;;;;;;6.00;5.17;;;;;;;14.47;36.86;103020.63;4992389;28;20438;-46
2022/04/17 11:32:46;;;;;;;5.97;5.47;;;;;;;14.40;38.37;103023.13;4992150;28;20476;-46
2022/04/17 11:35:15;;;;;;;5.43;5.13;;;;;;;14.21;40.14;103019.91;4992692;28;20438;-45
2022/04/17 11:37:53;;;;;;;5.73;5.33;;;;;;;14.18;38.51;103020.22;4992311;28;20982;-45
2022/04/17 11:40:23;;;;;;;5.60;5.20;;;;;;;14.11;40.03;103022.72;4992040;28;20549;-45
2022/04/17 11:42:54;;;;;;;5.90;5.43;;;;;;;14.34;36.09;103028.31;4992105;28;20466;-45
2022/04/17 11:45:23;;;;;;;4.30;4.10;;;;;;;14.65;36.08;103018.63;4992300;28;20797;-45